CCA227 ZSPD-ZGGG
Flight info
| Callsign | CCA227 |
|---|---|
| Flight time | N/A |
| Altitude | 40100 |
| Route | NXD82D NXD W131 AKDIM A470 DUBGO W134 ELNEX A599 PLT W19 OLPAB OLPAB1 |
| Aircraft | A35K/H-SDE2E3GHIJ3J4J5LM1ORWXY/LB1D1 |
Departure
| Time | 2026-05-05 14:09 |
|---|---|
| Airport | Shanghai Pudong International Airport (ZSPD) |
Arrival
| Time | N/A |
|---|---|
| Airport | Guangzhou Baiyun International Airport (ZGGG) |
| Time | Latitude | Longitude | Altitude | Speed | Heading |
|---|---|---|---|---|---|
| 2026-05-05 13:29 | 31.13534 | 121.81430 | 29 ft | 0 kts | 252° |
| 2026-05-05 13:46 | 31.13538 | 121.81444 | 28 ft | 2 kts | 252° |
| 2026-05-05 13:46 | 31.13543 | 121.81462 | 28 ft | 2 kts | 252° |
| 2026-05-05 13:46 | 31.13547 | 121.81481 | 27 ft | 2 kts | 265° |
| 2026-05-05 13:46 | 31.13546 | 121.81500 | 26 ft | 2 kts | 289° |
| 2026-05-05 13:47 | 31.13538 | 121.81516 | 26 ft | 2 kts | 321° |
| 2026-05-05 13:47 | 31.13529 | 121.81523 | 26 ft | 0 kts | 342° |
| 2026-05-05 13:50 | 31.13533 | 121.81522 | 26 ft | 2 kts | 342° |
| 2026-05-05 13:50 | 31.13554 | 121.81515 | 26 ft | 5 kts | 344° |
| 2026-05-05 13:50 | 31.13599 | 121.81499 | 28 ft | 9 kts | 344° |
| 2026-05-05 13:51 | 31.13667 | 121.81475 | 28 ft | 12 kts | 341° |
| 2026-05-05 13:51 | 31.13749 | 121.81443 | 28 ft | 10 kts | 342° |
| 2026-05-05 13:51 | 31.13765 | 121.81437 | 28 ft | 1 kts | 342° |
| 2026-05-05 13:51 | 31.13768 | 121.81436 | 29 ft | 0 kts | 342° |
| 2026-05-05 13:52 | 31.13779 | 121.81432 | 29 ft | 3 kts | 342° |
| 2026-05-05 13:52 | 31.13805 | 121.81430 | 29 ft | 4 kts | 7° |
| 2026-05-05 13:52 | 31.13829 | 121.81450 | 29 ft | 4 kts | 58° |
| 2026-05-05 13:52 | 31.13844 | 121.81489 | 29 ft | 7 kts | 65° |
| 2026-05-05 13:53 | 31.13864 | 121.81548 | 29 ft | 9 kts | 70° |
| 2026-05-05 13:53 | 31.13885 | 121.81624 | 29 ft | 11 kts | 72° |
| 2026-05-05 13:53 | 31.13933 | 121.81682 | 29 ft | 10 kts | 9° |
| 2026-05-05 13:53 | 31.14008 | 121.81666 | 29 ft | 12 kts | 343° |
| 2026-05-05 13:54 | 31.14095 | 121.81635 | 29 ft | 14 kts | 342° |
| 2026-05-05 13:54 | 31.14197 | 121.81596 | 29 ft | 17 kts | 342° |
| 2026-05-05 13:54 | 31.14278 | 121.81565 | 28 ft | 0 kts | 341° |
| 2026-05-05 13:54 | 31.14286 | 121.81562 | 28 ft | 3 kts | 342° |
| 2026-05-05 13:55 | 31.14312 | 121.81552 | 28 ft | 5 kts | 342° |
| 2026-05-05 13:55 | 31.14357 | 121.81535 | 28 ft | 8 kts | 342° |
| 2026-05-05 13:55 | 31.14420 | 121.81512 | 28 ft | 10 kts | 342° |
| 2026-05-05 13:55 | 31.14448 | 121.81502 | 28 ft | 0 kts | 342° |
| 2026-05-05 13:56 | 31.14452 | 121.81500 | 28 ft | 2 kts | 342° |
| 2026-05-05 13:56 | 31.14456 | 121.81498 | 28 ft | 0 kts | 342° |
| 2026-05-05 13:56 | 31.14463 | 121.81496 | 28 ft | 3 kts | 342° |
| 2026-05-05 13:57 | 31.14492 | 121.81483 | 28 ft | 6 kts | 334° |
| 2026-05-05 13:57 | 31.14511 | 121.81436 | 28 ft | 8 kts | 269° |
| 2026-05-05 13:57 | 31.14498 | 121.81364 | 28 ft | 10 kts | 253° |
| 2026-05-05 13:57 | 31.14474 | 121.81273 | 29 ft | 13 kts | 252° |
| 2026-05-05 13:58 | 31.14443 | 121.81161 | 29 ft | 16 kts | 251° |
| 2026-05-05 13:58 | 31.14407 | 121.81032 | 29 ft | 18 kts | 252° |
| 2026-05-05 13:58 | 31.14365 | 121.80886 | 29 ft | 20 kts | 252° |
| 2026-05-05 13:58 | 31.14321 | 121.80724 | 29 ft | 22 kts | 252° |
| 2026-05-05 13:59 | 31.14223 | 121.80371 | 29 ft | 24 kts | 252° |
| 2026-05-05 13:59 | 31.14188 | 121.80247 | 29 ft | 25 kts | 252° |
| 2026-05-05 14:00 | 31.14090 | 121.79893 | 29 ft | 22 kts | 252° |
| 2026-05-05 14:00 | 31.14046 | 121.79728 | 29 ft | 21 kts | 258° |
| 2026-05-05 14:00 | 31.14081 | 121.79594 | 29 ft | 19 kts | 334° |
| 2026-05-05 14:00 | 31.14212 | 121.79540 | 29 ft | 21 kts | 342° |
| 2026-05-05 14:01 | 31.14361 | 121.79484 | 29 ft | 24 kts | 342° |
| 2026-05-05 14:01 | 31.14518 | 121.79425 | 29 ft | 21 kts | 342° |
| 2026-05-05 14:01 | 31.14664 | 121.79370 | 29 ft | 23 kts | 342° |
| 2026-05-05 14:01 | 31.14818 | 121.79311 | 29 ft | 24 kts | 342° |
| 2026-05-05 14:02 | 31.14978 | 121.79251 | 29 ft | 19 kts | 342° |
| 2026-05-05 14:02 | 31.15105 | 121.79203 | 29 ft | 20 kts | 342° |
| 2026-05-05 14:02 | 31.15241 | 121.79152 | 29 ft | 21 kts | 342° |
| 2026-05-05 14:02 | 31.15386 | 121.79098 | 28 ft | 21 kts | 342° |
| 2026-05-05 14:03 | 31.15499 | 121.79055 | 28 ft | 10 kts | 342° |
| 2026-05-05 14:03 | 31.15539 | 121.79040 | 28 ft | 0 kts | 342° |
| 2026-05-05 14:04 | 31.15546 | 121.79037 | 28 ft | 2 kts | 342° |
| 2026-05-05 14:04 | 31.15572 | 121.79028 | 28 ft | 5 kts | 342° |
| 2026-05-05 14:04 | 31.15603 | 121.79001 | 28 ft | 6 kts | 307° |
| 2026-05-05 14:04 | 31.15606 | 121.78955 | 28 ft | 0 kts | 267° |
| 2026-05-05 14:07 | 31.15605 | 121.78948 | 28 ft | 2 kts | 267° |
| 2026-05-05 14:07 | 31.15604 | 121.78916 | 28 ft | 6 kts | 265° |
| 2026-05-05 14:08 | 31.15599 | 121.78858 | 28 ft | 8 kts | 262° |
| 2026-05-05 14:08 | 31.15562 | 121.78816 | 28 ft | 7 kts | 188° |
| 2026-05-05 14:08 | 31.15541 | 121.78821 | 28 ft | 0 kts | 163° |
| 2026-05-05 14:08 | 31.15531 | 121.78824 | 28 ft | 6 kts | 163° |
| 2026-05-05 14:09 | 31.15316 | 121.78903 | 27 ft | 70 kts | 162° |
| 2026-05-05 14:09 | 31.14640 | 121.79155 | 30 ft | 132 kts | 162° |
| 2026-05-05 14:09 | 31.13597 | 121.79550 | 177 ft | 172 kts | 162° |
| 2026-05-05 14:09 | 31.12474 | 121.79973 | 1002 ft | 163 kts | 163° |
| 2026-05-05 14:10 | 31.11425 | 121.80362 | 1956 ft | 152 kts | 166° |
| 2026-05-05 14:10 | 31.10438 | 121.80688 | 2610 ft | 144 kts | 166° |
| 2026-05-05 14:10 | 31.09468 | 121.81003 | 3043 ft | 149 kts | 165° |
| 2026-05-05 14:10 | 31.08407 | 121.81352 | 3221 ft | 169 kts | 165° |
| 2026-05-05 14:11 | 31.07200 | 121.81752 | 3385 ft | 193 kts | 164° |
| 2026-05-05 14:11 | 31.05829 | 121.82212 | 3587 ft | 217 kts | 164° |
| 2026-05-05 14:11 | 31.04310 | 121.82725 | 3875 ft | 238 kts | 164° |
| 2026-05-05 14:11 | 31.02650 | 121.83228 | 4264 ft | 253 kts | 170° |
| 2026-05-05 14:12 | 31.00878 | 121.83149 | 4779 ft | 261 kts | 196° |
| 2026-05-05 14:12 | 30.99309 | 121.82074 | 5337 ft | 268 kts | 225° |
| 2026-05-05 14:12 | 30.98330 | 121.80239 | 5795 ft | 270 kts | 248° |
| 2026-05-05 14:12 | 30.97737 | 121.78153 | 5938 ft | 272 kts | 253° |
| 2026-05-05 14:13 | 30.97200 | 121.76038 | 5943 ft | 273 kts | 253° |
| 2026-05-05 14:13 | 30.96649 | 121.73913 | 5940 ft | 274 kts | 252° |
| 2026-05-05 14:13 | 30.96290 | 121.71741 | 5937 ft | 275 kts | 268° |
| 2026-05-05 14:13 | 30.96529 | 121.69537 | 6117 ft | 275 kts | 281° |
| 2026-05-05 14:14 | 30.96948 | 121.67353 | 6640 ft | 278 kts | 282° |
| 2026-05-05 14:14 | 30.97371 | 121.65159 | 7336 ft | 278 kts | 282° |
| 2026-05-05 14:14 | 30.97789 | 121.62951 | 8011 ft | 280 kts | 282° |
| 2026-05-05 14:14 | 30.98203 | 121.60731 | 8672 ft | 282 kts | 281° |
| 2026-05-05 14:15 | 30.98621 | 121.58484 | 9334 ft | 285 kts | 281° |
| 2026-05-05 14:15 | 30.99039 | 121.56217 | 9995 ft | 288 kts | 281° |
| 2026-05-05 14:15 | 30.99465 | 121.53906 | 10412 ft | 299 kts | 281° |
| 2026-05-05 14:15 | 30.99912 | 121.51476 | 10648 ft | 314 kts | 281° |
| 2026-05-05 14:16 | 31.00381 | 121.48922 | 10892 ft | 330 kts | 281° |
| 2026-05-05 14:16 | 31.00872 | 121.46256 | 11133 ft | 343 kts | 282° |
| 2026-05-05 14:16 | 31.01384 | 121.43484 | 11375 ft | 356 kts | 282° |
| 2026-05-05 14:16 | 31.01910 | 121.40623 | 11709 ft | 364 kts | 282° |
| 2026-05-05 14:17 | 31.02442 | 121.37724 | 12183 ft | 368 kts | 282° |
| 2026-05-05 14:17 | 31.02979 | 121.34798 | 12705 ft | 370 kts | 282° |
| 2026-05-05 14:17 | 31.03479 | 121.32068 | 13168 ft | 372 kts | 282° |
| 2026-05-05 14:17 | 31.04014 | 121.29146 | 13649 ft | 375 kts | 282° |
| 2026-05-05 14:18 | 31.04559 | 121.26163 | 14091 ft | 377 kts | 282° |
| 2026-05-05 14:18 | 31.05106 | 121.23166 | 14516 ft | 380 kts | 282° |
| 2026-05-05 14:18 | 31.05657 | 121.20143 | 14953 ft | 382 kts | 282° |
| 2026-05-05 14:18 | 31.06216 | 121.17068 | 15429 ft | 384 kts | 282° |
| 2026-05-05 14:19 | 31.06675 | 121.13995 | 15869 ft | 386 kts | 275° |
| 2026-05-05 14:19 | 31.06561 | 121.10867 | 16334 ft | 389 kts | 260° |
| 2026-05-05 14:19 | 31.05906 | 121.07794 | 16793 ft | 392 kts | 255° |
| 2026-05-05 14:19 | 31.05152 | 121.04797 | 17239 ft | 394 kts | 255° |
| 2026-05-05 14:20 | 31.04358 | 121.01667 | 17692 ft | 396 kts | 255° |
| 2026-05-05 14:20 | 31.03581 | 120.98578 | 18137 ft | 398 kts | 255° |
| 2026-05-05 14:20 | 31.02804 | 120.95467 | 18549 ft | 400 kts | 255° |
| 2026-05-05 14:20 | 31.02036 | 120.92386 | 18910 ft | 403 kts | 255° |
| 2026-05-05 14:21 | 31.01243 | 120.89199 | 19289 ft | 405 kts | 255° |
| 2026-05-05 14:21 | 31.00455 | 120.86035 | 19650 ft | 407 kts | 255° |
| 2026-05-05 14:21 | 30.99673 | 120.82897 | 20026 ft | 410 kts | 255° |
| 2026-05-05 14:21 | 30.98877 | 120.79704 | 20386 ft | 412 kts | 255° |
| 2026-05-05 14:22 | 30.98075 | 120.76488 | 20742 ft | 414 kts | 255° |
| 2026-05-05 14:22 | 30.97269 | 120.73261 | 21108 ft | 416 kts | 255° |
| 2026-05-05 14:22 | 30.96456 | 120.70011 | 21461 ft | 418 kts | 255° |
| 2026-05-05 14:22 | 30.95638 | 120.66744 | 21806 ft | 421 kts | 255° |
| 2026-05-05 14:23 | 30.94816 | 120.63464 | 22162 ft | 423 kts | 256° |
| 2026-05-05 14:23 | 30.93989 | 120.60169 | 22519 ft | 425 kts | 256° |
| 2026-05-05 14:23 | 30.93158 | 120.56862 | 22858 ft | 427 kts | 256° |
| 2026-05-05 14:23 | 30.92321 | 120.53533 | 23193 ft | 429 kts | 256° |
| 2026-05-05 14:24 | 30.91471 | 120.50197 | 23537 ft | 432 kts | 255° |
| 2026-05-05 14:24 | 30.90395 | 120.46905 | 23812 ft | 436 kts | 247° |
| 2026-05-05 14:24 | 30.88878 | 120.43829 | 24086 ft | 441 kts | 237° |
| 2026-05-05 14:24 | 30.86905 | 120.41068 | 24363 ft | 447 kts | 227° |
| 2026-05-05 14:25 | 30.84554 | 120.38686 | 24636 ft | 451 kts | 220° |
| 2026-05-05 14:25 | 30.82042 | 120.36487 | 24910 ft | 454 kts | 218° |
| 2026-05-05 14:25 | 30.79452 | 120.34366 | 25179 ft | 456 kts | 217° |
| 2026-05-05 14:25 | 30.76827 | 120.32271 | 25467 ft | 458 kts | 217° |
| 2026-05-05 14:26 | 30.74194 | 120.30173 | 25725 ft | 460 kts | 217° |
| 2026-05-05 14:26 | 30.71553 | 120.28055 | 25999 ft | 462 kts | 217° |
| 2026-05-05 14:26 | 30.68909 | 120.25915 | 26284 ft | 463 kts | 217° |
| 2026-05-05 14:26 | 30.66266 | 120.23760 | 26590 ft | 465 kts | 217° |
| 2026-05-05 14:27 | 30.63651 | 120.21620 | 26882 ft | 467 kts | 218° |
| 2026-05-05 14:27 | 30.60990 | 120.19438 | 27182 ft | 469 kts | 218° |
| 2026-05-05 14:27 | 30.58319 | 120.17249 | 27486 ft | 471 kts | 218° |
| 2026-05-05 14:27 | 30.55642 | 120.15056 | 27800 ft | 473 kts | 218° |
| 2026-05-05 14:28 | 30.52949 | 120.12852 | 28121 ft | 474 kts | 217° |
| 2026-05-05 14:28 | 30.50245 | 120.10642 | 28434 ft | 476 kts | 217° |
| 2026-05-05 14:28 | 30.47531 | 120.08425 | 28752 ft | 478 kts | 217° |
| 2026-05-05 14:28 | 30.44799 | 120.06206 | 29076 ft | 481 kts | 217° |
| 2026-05-05 14:29 | 30.41949 | 120.04148 | 29395 ft | 483 kts | 213° |
| 2026-05-05 14:29 | 30.39051 | 120.02161 | 29713 ft | 485 kts | 213° |
| 2026-05-05 14:29 | 30.36121 | 120.00192 | 30043 ft | 487 kts | 212° |
| 2026-05-05 14:29 | 30.33183 | 119.98238 | 30337 ft | 488 kts | 212° |
| 2026-05-05 14:30 | 30.30232 | 119.96283 | 30621 ft | 489 kts | 212° |
| 2026-05-05 14:30 | 30.27273 | 119.94324 | 30922 ft | 490 kts | 212° |
| 2026-05-05 14:30 | 30.24311 | 119.92362 | 31184 ft | 492 kts | 212° |
| 2026-05-05 14:30 | 30.21336 | 119.90390 | 31442 ft | 494 kts | 212° |
| 2026-05-05 14:31 | 30.18356 | 119.88413 | 31804 ft | 492 kts | 213° |
| 2026-05-05 14:31 | 30.15393 | 119.86449 | 32227 ft | 490 kts | 213° |
| 2026-05-05 14:31 | 30.12446 | 119.84495 | 32633 ft | 488 kts | 213° |
| 2026-05-05 14:31 | 30.09543 | 119.82572 | 33011 ft | 487 kts | 213° |
| 2026-05-05 14:32 | 30.06612 | 119.80631 | 33406 ft | 485 kts | 213° |
| 2026-05-05 14:32 | 30.03687 | 119.78697 | 33787 ft | 484 kts | 213° |
| 2026-05-05 14:32 | 30.00779 | 119.76760 | 34156 ft | 482 kts | 214° |
| 2026-05-05 14:32 | 29.97881 | 119.74810 | 34463 ft | 482 kts | 214° |
| 2026-05-05 14:33 | 29.94995 | 119.72860 | 34753 ft | 481 kts | 214° |
| 2026-05-05 14:33 | 29.92108 | 119.70910 | 35052 ft | 480 kts | 214° |
| 2026-05-05 14:33 | 29.89224 | 119.68967 | 35379 ft | 479 kts | 214° |
| 2026-05-05 14:33 | 29.86351 | 119.67035 | 35694 ft | 478 kts | 214° |
| 2026-05-05 14:34 | 29.83490 | 119.65083 | 35980 ft | 476 kts | 216° |
| 2026-05-05 14:34 | 29.80725 | 119.63002 | 36285 ft | 474 kts | 218° |
| 2026-05-05 14:34 | 29.78018 | 119.60840 | 36557 ft | 473 kts | 219° |
| 2026-05-05 14:34 | 29.75334 | 119.58659 | 36848 ft | 473 kts | 219° |
| 2026-05-05 14:35 | 29.72647 | 119.56486 | 37152 ft | 471 kts | 219° |
| 2026-05-05 14:35 | 29.69955 | 119.54332 | 37417 ft | 471 kts | 219° |
| 2026-05-05 14:35 | 29.67257 | 119.52199 | 37689 ft | 471 kts | 218° |
| 2026-05-05 14:35 | 29.64594 | 119.50025 | 37961 ft | 468 kts | 222° |
| 2026-05-05 14:36 | 29.62169 | 119.47566 | 38229 ft | 463 kts | 229° |
| 2026-05-05 14:36 | 29.59939 | 119.44909 | 38516 ft | 461 kts | 230° |
| 2026-05-05 14:36 | 29.57793 | 119.42241 | 38759 ft | 460 kts | 231° |
| 2026-05-05 14:36 | 29.55649 | 119.39517 | 38922 ft | 460 kts | 231° |
| 2026-05-05 14:37 | 29.53514 | 119.36780 | 39075 ft | 460 kts | 231° |
| 2026-05-05 14:37 | 29.51378 | 119.34043 | 39236 ft | 460 kts | 231° |
| 2026-05-05 14:37 | 29.49244 | 119.31305 | 39410 ft | 460 kts | 231° |
| 2026-05-05 14:37 | 29.47106 | 119.28569 | 39575 ft | 460 kts | 231° |
| 2026-05-05 14:38 | 29.44967 | 119.25839 | 39742 ft | 460 kts | 231° |
| 2026-05-05 14:38 | 29.42824 | 119.23112 | 39894 ft | 460 kts | 231° |
| 2026-05-05 14:38 | 29.40681 | 119.20389 | 40064 ft | 460 kts | 231° |
| 2026-05-05 14:38 | 29.38534 | 119.17665 | 40118 ft | 461 kts | 231° |
| 2026-05-05 14:39 | 29.34221 | 119.12206 | 40121 ft | 462 kts | 231° |
| 2026-05-05 14:39 | 29.29899 | 119.06755 | 40122 ft | 462 kts | 231° |
| 2026-05-05 14:40 | 29.25577 | 119.01310 | 40123 ft | 462 kts | 231° |
| 2026-05-05 14:40 | 29.21251 | 118.95865 | 40123 ft | 462 kts | 231° |
| 2026-05-05 14:41 | 29.16922 | 118.90425 | 40122 ft | 463 kts | 231° |
| 2026-05-05 14:41 | 29.12582 | 118.84980 | 40124 ft | 463 kts | 231° |
| 2026-05-05 14:42 | 29.08243 | 118.79544 | 40121 ft | 463 kts | 231° |
| 2026-05-05 14:42 | 29.03895 | 118.74107 | 40125 ft | 464 kts | 231° |
| 2026-05-05 14:43 | 28.99540 | 118.68661 | 40116 ft | 464 kts | 231° |
| 2026-05-05 14:43 | 28.95189 | 118.63229 | 40120 ft | 463 kts | 231° |
| 2026-05-05 14:44 | 28.90837 | 118.57803 | 40124 ft | 463 kts | 231° |
| 2026-05-05 14:44 | 28.86481 | 118.52379 | 40113 ft | 463 kts | 231° |
| 2026-05-05 14:45 | 28.82856 | 118.47873 | 40112 ft | 464 kts | 231° |
| 2026-05-05 14:45 | 28.77779 | 118.41571 | 40119 ft | 464 kts | 231° |
| 2026-05-05 14:46 | 28.73410 | 118.36154 | 40117 ft | 464 kts | 231° |
| 2026-05-05 14:46 | 28.69742 | 118.31611 | 40115 ft | 464 kts | 231° |
| 2026-05-05 14:47 | 28.65398 | 118.26236 | 40117 ft | 464 kts | 231° |
| 2026-05-05 14:47 | 28.61019 | 118.20827 | 40117 ft | 465 kts | 231° |
| 2026-05-05 14:48 | 28.56636 | 118.15421 | 40118 ft | 465 kts | 231° |
| 2026-05-05 14:48 | 28.52251 | 118.10020 | 40115 ft | 465 kts | 231° |
| 2026-05-05 14:49 | 28.47859 | 118.04616 | 40118 ft | 465 kts | 232° |
| 2026-05-05 14:49 | 28.43467 | 117.99220 | 40118 ft | 465 kts | 232° |
| 2026-05-05 14:50 | 28.39045 | 117.93838 | 40115 ft | 466 kts | 231° |
| 2026-05-05 14:50 | 28.34543 | 117.88534 | 40117 ft | 466 kts | 231° |
| 2026-05-05 14:51 | 28.30033 | 117.83248 | 40116 ft | 466 kts | 231° |
| 2026-05-05 14:51 | 28.25532 | 117.77956 | 40116 ft | 466 kts | 231° |
| 2026-05-05 14:52 | 28.21058 | 117.72689 | 40121 ft | 466 kts | 231° |
| 2026-05-05 14:52 | 28.16557 | 117.67393 | 40126 ft | 466 kts | 231° |
| 2026-05-05 14:53 | 28.12055 | 117.62106 | 40127 ft | 466 kts | 231° |
| 2026-05-05 14:53 | 28.07553 | 117.56825 | 40130 ft | 466 kts | 231° |
| 2026-05-05 14:54 | 28.03048 | 117.51547 | 40130 ft | 466 kts | 231° |
| 2026-05-05 14:54 | 27.98539 | 117.46273 | 40135 ft | 466 kts | 231° |
| 2026-05-05 14:55 | 27.94025 | 117.40999 | 40137 ft | 466 kts | 231° |
| 2026-05-05 14:55 | 27.89510 | 117.35728 | 40135 ft | 467 kts | 231° |
| 2026-05-05 14:56 | 27.84989 | 117.30454 | 40144 ft | 467 kts | 231° |
| 2026-05-05 14:56 | 27.80464 | 117.25189 | 40139 ft | 467 kts | 231° |
| 2026-05-05 14:57 | 27.75935 | 117.19927 | 40136 ft | 467 kts | 231° |
| 2026-05-05 14:57 | 27.71400 | 117.14668 | 40141 ft | 467 kts | 231° |
| 2026-05-05 14:58 | 27.66896 | 117.09449 | 40140 ft | 467 kts | 232° |
| 2026-05-05 14:58 | 27.62363 | 117.04195 | 40134 ft | 467 kts | 232° |
| 2026-05-05 14:59 | 27.57827 | 116.98946 | 40133 ft | 467 kts | 232° |
| 2026-05-05 14:59 | 27.53288 | 116.93704 | 40132 ft | 467 kts | 232° |
| 2026-05-05 15:00 | 27.49514 | 116.89342 | 40127 ft | 467 kts | 232° |
| 2026-05-05 15:00 | 27.44249 | 116.83171 | 40126 ft | 467 kts | 232° |
| 2026-05-05 15:01 | 27.39757 | 116.77900 | 40125 ft | 467 kts | 232° |
| 2026-05-05 15:01 | 27.35253 | 116.72633 | 40124 ft | 467 kts | 232° |
| 2026-05-05 15:02 | 27.30748 | 116.67379 | 40123 ft | 467 kts | 232° |
| 2026-05-05 15:02 | 27.26236 | 116.62127 | 40124 ft | 467 kts | 232° |
| 2026-05-05 15:03 | 27.21729 | 116.56887 | 40131 ft | 466 kts | 232° |
| 2026-05-05 15:03 | 27.17258 | 116.51619 | 40131 ft | 465 kts | 233° |
| 2026-05-05 15:04 | 27.12911 | 116.46309 | 40133 ft | 465 kts | 234° |
| 2026-05-05 15:04 | 27.08536 | 116.40964 | 40132 ft | 465 kts | 234° |
| 2026-05-05 15:05 | 27.01938 | 116.32977 | 40131 ft | 465 kts | 234° |
| 2026-05-05 15:06 | 26.97532 | 116.27665 | 40131 ft | 465 kts | 234° |
| 2026-05-05 15:06 | 26.93130 | 116.22364 | 40140 ft | 465 kts | 234° |
| 2026-05-05 15:07 | 26.88739 | 116.17057 | 40148 ft | 464 kts | 234° |
| 2026-05-05 15:07 | 26.84372 | 116.11729 | 40144 ft | 464 kts | 234° |
| 2026-05-05 15:08 | 26.79999 | 116.06400 | 40137 ft | 464 kts | 234° |
| 2026-05-05 15:08 | 26.75624 | 116.01082 | 40132 ft | 464 kts | 234° |
| 2026-05-05 15:09 | 26.71248 | 115.95772 | 40132 ft | 464 kts | 234° |
| 2026-05-05 15:09 | 26.66896 | 115.90500 | 40130 ft | 464 kts | 234° |
| 2026-05-05 15:10 | 26.62515 | 115.85199 | 40131 ft | 464 kts | 235° |
| 2026-05-05 15:10 | 26.58134 | 115.79903 | 40132 ft | 464 kts | 235° |
| 2026-05-05 15:11 | 26.53748 | 115.74609 | 40131 ft | 464 kts | 235° |
| 2026-05-05 15:11 | 26.49369 | 115.69331 | 40130 ft | 463 kts | 235° |
| 2026-05-05 15:12 | 26.44991 | 115.64057 | 40124 ft | 463 kts | 235° |
| 2026-05-05 15:12 | 26.40608 | 115.58784 | 40133 ft | 464 kts | 235° |
| 2026-05-05 15:13 | 26.36222 | 115.53516 | 40131 ft | 463 kts | 235° |
| 2026-05-05 15:13 | 26.31836 | 115.48253 | 40133 ft | 463 kts | 235° |
| 2026-05-05 15:14 | 26.27446 | 115.42991 | 40124 ft | 463 kts | 235° |
| 2026-05-05 15:14 | 26.23059 | 115.37739 | 40123 ft | 463 kts | 235° |
| 2026-05-05 15:15 | 26.18667 | 115.32488 | 40118 ft | 463 kts | 235° |
| 2026-05-05 15:15 | 26.14276 | 115.27245 | 40115 ft | 463 kts | 235° |
| 2026-05-05 15:16 | 26.09884 | 115.22006 | 40115 ft | 463 kts | 235° |
| 2026-05-05 15:16 | 26.05487 | 115.16768 | 40117 ft | 463 kts | 235° |
| 2026-05-05 15:17 | 26.01116 | 115.11566 | 40115 ft | 463 kts | 235° |
| 2026-05-05 15:17 | 25.96715 | 115.06336 | 40114 ft | 463 kts | 235° |
| 2026-05-05 15:18 | 25.92312 | 115.01109 | 40111 ft | 463 kts | 235° |
| 2026-05-05 15:18 | 25.87899 | 114.95872 | 40114 ft | 464 kts | 235° |
| 2026-05-05 15:19 | 25.83319 | 114.90783 | 40113 ft | 473 kts | 227° |
| 2026-05-05 15:19 | 25.77583 | 114.86961 | 40111 ft | 495 kts | 210° |
| 2026-05-05 15:20 | 25.70859 | 114.84855 | 40110 ft | 506 kts | 201° |
| 2026-05-05 15:20 | 25.63957 | 114.83195 | 40113 ft | 509 kts | 200° |
| 2026-05-05 15:21 | 25.57036 | 114.81563 | 40112 ft | 508 kts | 200° |
| 2026-05-05 15:21 | 25.50132 | 114.79885 | 40117 ft | 508 kts | 200° |
| 2026-05-05 15:22 | 25.43234 | 114.78180 | 40117 ft | 508 kts | 201° |
| 2026-05-05 15:22 | 25.36341 | 114.76472 | 40118 ft | 508 kts | 201° |
| 2026-05-05 15:23 | 25.29451 | 114.74768 | 40116 ft | 508 kts | 200° |
| 2026-05-05 15:23 | 25.22549 | 114.73066 | 39930 ft | 507 kts | 200° |
| 2026-05-05 15:23 | 25.19107 | 114.72218 | 39612 ft | 507 kts | 201° |
| 2026-05-05 15:24 | 25.15657 | 114.71369 | 39271 ft | 507 kts | 201° |
| 2026-05-05 15:24 | 25.12215 | 114.70521 | 38935 ft | 508 kts | 201° |
| 2026-05-05 15:24 | 25.08759 | 114.69670 | 38581 ft | 509 kts | 201° |
| 2026-05-05 15:24 | 25.05350 | 114.68831 | 38178 ft | 509 kts | 201° |
| 2026-05-05 15:25 | 25.01887 | 114.67978 | 37780 ft | 510 kts | 200° |
| 2026-05-05 15:25 | 24.98425 | 114.67127 | 37382 ft | 510 kts | 200° |
| 2026-05-05 15:25 | 24.94953 | 114.66275 | 37005 ft | 511 kts | 200° |
| 2026-05-05 15:25 | 24.91490 | 114.65427 | 36628 ft | 511 kts | 200° |
| 2026-05-05 15:26 | 24.88015 | 114.64575 | 36263 ft | 511 kts | 200° |
| 2026-05-05 15:26 | 24.84546 | 114.63728 | 35784 ft | 511 kts | 200° |
| 2026-05-05 15:26 | 24.81070 | 114.62878 | 35270 ft | 511 kts | 199° |
| 2026-05-05 15:26 | 24.77604 | 114.62025 | 34685 ft | 511 kts | 199° |
| 2026-05-05 15:27 | 24.74134 | 114.61171 | 34106 ft | 511 kts | 199° |
| 2026-05-05 15:27 | 24.70744 | 114.60106 | 33466 ft | 503 kts | 207° |
| 2026-05-05 15:27 | 24.67582 | 114.58537 | 32837 ft | 497 kts | 213° |
| 2026-05-05 15:27 | 24.64532 | 114.56743 | 32208 ft | 497 kts | 215° |
| 2026-05-05 15:28 | 24.61520 | 114.54873 | 31592 ft | 498 kts | 216° |
| 2026-05-05 15:28 | 24.58513 | 114.52958 | 30983 ft | 501 kts | 216° |
| 2026-05-05 15:28 | 24.55498 | 114.51023 | 30394 ft | 503 kts | 216° |
| 2026-05-05 15:28 | 24.52467 | 114.49083 | 29763 ft | 506 kts | 215° |
| 2026-05-05 15:29 | 24.49417 | 114.47139 | 29102 ft | 507 kts | 215° |
| 2026-05-05 15:29 | 24.46366 | 114.45208 | 28445 ft | 504 kts | 215° |
| 2026-05-05 15:29 | 24.43341 | 114.43303 | 27804 ft | 500 kts | 214° |
| 2026-05-05 15:29 | 24.40337 | 114.41416 | 27185 ft | 496 kts | 214° |
| 2026-05-05 15:30 | 24.37354 | 114.39551 | 26573 ft | 491 kts | 214° |
| 2026-05-05 15:30 | 24.34400 | 114.37701 | 25976 ft | 487 kts | 214° |
| 2026-05-05 15:30 | 24.31467 | 114.35863 | 25321 ft | 484 kts | 214° |
| 2026-05-05 15:30 | 24.28549 | 114.34034 | 24632 ft | 483 kts | 213° |
| 2026-05-05 15:31 | 24.25639 | 114.32211 | 23962 ft | 480 kts | 213° |
| 2026-05-05 15:31 | 24.22744 | 114.30398 | 23249 ft | 478 kts | 213° |
| 2026-05-05 15:31 | 24.19935 | 114.28644 | 22489 ft | 463 kts | 213° |
| 2026-05-05 15:31 | 24.17169 | 114.26918 | 21741 ft | 457 kts | 213° |
| 2026-05-05 15:32 | 24.14400 | 114.25185 | 21022 ft | 458 kts | 213° |
| 2026-05-05 15:32 | 24.11641 | 114.23462 | 20305 ft | 456 kts | 213° |
| 2026-05-05 15:32 | 24.08952 | 114.21650 | 19626 ft | 447 kts | 219° |
| 2026-05-05 15:32 | 24.06744 | 114.19421 | 18966 ft | 419 kts | 231° |
| 2026-05-05 15:33 | 24.04878 | 114.17086 | 18305 ft | 398 kts | 232° |
| 2026-05-05 15:33 | 24.03110 | 114.14818 | 17556 ft | 386 kts | 232° |
| 2026-05-05 15:33 | 24.01403 | 114.12631 | 16822 ft | 370 kts | 232° |
| 2026-05-05 15:33 | 23.99757 | 114.10530 | 16096 ft | 357 kts | 232° |
| 2026-05-05 15:34 | 23.98167 | 114.08508 | 15404 ft | 345 kts | 232° |
| 2026-05-05 15:34 | 23.96628 | 114.06551 | 14708 ft | 334 kts | 232° |
| 2026-05-05 15:34 | 23.95125 | 114.04637 | 14041 ft | 332 kts | 232° |
| 2026-05-05 15:34 | 23.93620 | 114.02687 | 13293 ft | 339 kts | 232° |
| 2026-05-05 15:35 | 23.92084 | 114.00695 | 12540 ft | 345 kts | 232° |
| 2026-05-05 15:35 | 23.90536 | 113.98697 | 12026 ft | 343 kts | 232° |
| 2026-05-05 15:35 | 23.89020 | 113.96746 | 11843 ft | 330 kts | 232° |
| 2026-05-05 15:35 | 23.87571 | 113.94886 | 11826 ft | 313 kts | 232° |
| 2026-05-05 15:36 | 23.86168 | 113.93082 | 11822 ft | 312 kts | 232° |
| 2026-05-05 15:36 | 23.84761 | 113.91270 | 11810 ft | 314 kts | 232° |
| 2026-05-05 15:36 | 23.83842 | 113.90004 | 11809 ft | 331 kts | 236° |
| 2026-05-05 15:36 | 23.82436 | 113.86869 | 11802 ft | 364 kts | 253° |
| 2026-05-05 15:37 | 23.81740 | 113.84162 | 11804 ft | 374 kts | 256° |
| 2026-05-05 15:37 | 23.81295 | 113.82302 | 11805 ft | 376 kts | 256° |
| 2026-05-05 15:37 | 23.80631 | 113.79539 | 11808 ft | 376 kts | 256° |
| 2026-05-05 15:37 | 23.79959 | 113.76778 | 11806 ft | 376 kts | 256° |
| 2026-05-05 15:38 | 23.79283 | 113.74020 | 11813 ft | 376 kts | 256° |
| 2026-05-05 15:38 | 23.78602 | 113.71264 | 11805 ft | 376 kts | 256° |
| 2026-05-05 15:38 | 23.77920 | 113.68508 | 11809 ft | 376 kts | 255° |
| 2026-05-05 15:38 | 23.77236 | 113.65752 | 11807 ft | 376 kts | 255° |
| 2026-05-05 15:39 | 23.76551 | 113.62995 | 11810 ft | 377 kts | 255° |
| 2026-05-05 15:39 | 23.75864 | 113.60235 | 11805 ft | 377 kts | 255° |
| 2026-05-05 15:39 | 23.75192 | 113.57542 | 11802 ft | 377 kts | 255° |
| 2026-05-05 15:39 | 23.74520 | 113.54847 | 11805 ft | 364 kts | 255° |
| 2026-05-05 15:40 | 23.73870 | 113.52248 | 11813 ft | 349 kts | 255° |
| 2026-05-05 15:40 | 23.73236 | 113.49708 | 11809 ft | 347 kts | 255° |
| 2026-05-05 15:40 | 23.72605 | 113.47181 | 11804 ft | 340 kts | 255° |
| 2026-05-05 15:40 | 23.71995 | 113.44744 | 11807 ft | 326 kts | 255° |
| 2026-05-05 15:41 | 23.71401 | 113.42370 | 11802 ft | 324 kts | 255° |
| 2026-05-05 15:41 | 23.70807 | 113.39998 | 11798 ft | 324 kts | 255° |
| 2026-05-05 15:41 | 23.70213 | 113.37627 | 11799 ft | 324 kts | 255° |
| 2026-05-05 15:41 | 23.69618 | 113.35256 | 11797 ft | 324 kts | 255° |
| 2026-05-05 15:42 | 23.69023 | 113.32886 | 11800 ft | 323 kts | 255° |
| 2026-05-05 15:42 | 23.68442 | 113.30576 | 11803 ft | 307 kts | 255° |
| 2026-05-05 15:42 | 23.67811 | 113.28382 | 11807 ft | 301 kts | 249° |
| 2026-05-05 15:42 | 23.66811 | 113.26382 | 11802 ft | 303 kts | 235° |
| 2026-05-05 15:43 | 23.65352 | 113.24724 | 11778 ft | 306 kts | 220° |
| 2026-05-05 15:43 | 23.63527 | 113.23550 | 11653 ft | 302 kts | 205° |
| 2026-05-05 15:43 | 23.61536 | 113.22920 | 11583 ft | 298 kts | 195° |
| 2026-05-05 15:43 | 23.59508 | 113.22474 | 11463 ft | 299 kts | 194° |
| 2026-05-05 15:44 | 23.57459 | 113.22034 | 11362 ft | 299 kts | 194° |
| 2026-05-05 15:44 | 23.55423 | 113.21591 | 11267 ft | 298 kts | 194° |
| 2026-05-05 15:44 | 23.53389 | 113.21141 | 11173 ft | 298 kts | 194° |
| 2026-05-05 15:44 | 23.51364 | 113.20690 | 11070 ft | 297 kts | 194° |
| 2026-05-05 15:45 | 23.49339 | 113.20238 | 10975 ft | 296 kts | 194° |
| 2026-05-05 15:45 | 23.47323 | 113.19787 | 10875 ft | 293 kts | 194° |
| 2026-05-05 15:45 | 23.45369 | 113.19352 | 10789 ft | 283 kts | 194° |
| 2026-05-05 15:45 | 23.43436 | 113.18920 | 10687 ft | 283 kts | 194° |
| 2026-05-05 15:46 | 23.41513 | 113.18489 | 10594 ft | 283 kts | 194° |
| 2026-05-05 15:46 | 23.39595 | 113.18066 | 10473 ft | 278 kts | 194° |
| 2026-05-05 15:46 | 23.37728 | 113.17660 | 10360 ft | 270 kts | 194° |
| 2026-05-05 15:46 | 23.35895 | 113.17258 | 10247 ft | 269 kts | 194° |
| 2026-05-05 15:47 | 23.34059 | 113.16854 | 10132 ft | 268 kts | 194° |
| 2026-05-05 15:47 | 23.32262 | 113.16460 | 10020 ft | 259 kts | 194° |
| 2026-05-05 15:47 | 23.30532 | 113.16083 | 9909 ft | 249 kts | 194° |
| 2026-05-05 15:47 | 23.28873 | 113.15721 | 9835 ft | 236 kts | 194° |
| 2026-05-05 15:48 | 23.27288 | 113.15369 | 9639 ft | 230 kts | 194° |
| 2026-05-05 15:48 | 23.25752 | 113.15018 | 9386 ft | 228 kts | 194° |
| 2026-05-05 15:48 | 23.24203 | 113.14665 | 9160 ft | 227 kts | 194° |
| 2026-05-05 15:48 | 23.22661 | 113.14314 | 8936 ft | 226 kts | 194° |
| 2026-05-05 15:49 | 23.21128 | 113.13966 | 8752 ft | 225 kts | 194° |
| 2026-05-05 15:49 | 23.19601 | 113.13620 | 8632 ft | 224 kts | 194° |
| 2026-05-05 15:49 | 23.18073 | 113.13274 | 8532 ft | 224 kts | 194° |
| 2026-05-05 15:49 | 23.16551 | 113.12930 | 8418 ft | 223 kts | 194° |
| 2026-05-05 15:50 | 23.15032 | 113.12587 | 8316 ft | 223 kts | 194° |
| 2026-05-05 15:50 | 23.13514 | 113.12244 | 8230 ft | 222 kts | 194° |
| 2026-05-05 15:50 | 23.12001 | 113.11902 | 8144 ft | 222 kts | 193° |
| 2026-05-05 15:50 | 23.10491 | 113.11561 | 8068 ft | 221 kts | 193° |
| 2026-05-05 15:51 | 23.08984 | 113.11222 | 7986 ft | 221 kts | 193° |
| 2026-05-05 15:51 | 23.07471 | 113.10926 | 7954 ft | 222 kts | 187° |
| 2026-05-05 15:51 | 23.05929 | 113.11059 | 7932 ft | 225 kts | 166° |
| 2026-05-05 15:51 | 23.04581 | 113.11898 | 7816 ft | 225 kts | 136° |
| 2026-05-05 15:52 | 23.03891 | 113.13351 | 7726 ft | 215 kts | 99° |
| 2026-05-05 15:52 | 23.04170 | 113.14902 | 7502 ft | 211 kts | 63° |
| 2026-05-05 15:52 | 23.04921 | 113.16266 | 7204 ft | 210 kts | 57° |
| 2026-05-05 15:52 | 23.05716 | 113.17598 | 6923 ft | 210 kts | 58° |
| 2026-05-05 15:53 | 23.06492 | 113.18939 | 6653 ft | 209 kts | 59° |
| 2026-05-05 15:53 | 23.07245 | 113.20284 | 6409 ft | 208 kts | 60° |
| 2026-05-05 15:53 | 23.07994 | 113.21624 | 6134 ft | 207 kts | 58° |
| 2026-05-05 15:53 | 23.08965 | 113.22765 | 5857 ft | 207 kts | 36° |
| 2026-05-05 15:54 | 23.10225 | 113.23493 | 5594 ft | 205 kts | 20° |
| 2026-05-05 15:54 | 23.11589 | 113.23929 | 5377 ft | 204 kts | 13° |
| 2026-05-05 15:54 | 23.12935 | 113.24282 | 5162 ft | 203 kts | 13° |
| 2026-05-05 15:54 | 23.14290 | 113.24636 | 4891 ft | 204 kts | 13° |
| 2026-05-05 15:55 | 23.15707 | 113.25020 | 4472 ft | 210 kts | 14° |
| 2026-05-05 15:55 | 23.17140 | 113.25417 | 4059 ft | 215 kts | 14° |
| 2026-05-05 15:55 | 23.18580 | 113.25818 | 3662 ft | 218 kts | 14° |
| 2026-05-05 15:55 | 23.20019 | 113.26218 | 3340 ft | 208 kts | 14° |
| 2026-05-05 15:56 | 23.21388 | 113.26585 | 3090 ft | 196 kts | 14° |
| 2026-05-05 15:56 | 23.22675 | 113.26929 | 2855 ft | 185 kts | 14° |
| 2026-05-05 15:56 | 23.23883 | 113.27254 | 2631 ft | 173 kts | 15° |
| 2026-05-05 15:56 | 23.25012 | 113.27557 | 2417 ft | 162 kts | 15° |
| 2026-05-05 15:57 | 23.26070 | 113.27842 | 2204 ft | 153 kts | 16° |
| 2026-05-05 15:57 | 23.27085 | 113.28116 | 2017 ft | 151 kts | 16° |
| 2026-05-05 15:57 | 23.28105 | 113.28390 | 1816 ft | 151 kts | 17° |
| 2026-05-05 15:57 | 23.29123 | 113.28663 | 1612 ft | 150 kts | 17° |
| 2026-05-05 15:58 | 23.30134 | 113.28936 | 1415 ft | 149 kts | 16° |
| 2026-05-05 15:58 | 23.31141 | 113.29207 | 1230 ft | 148 kts | 16° |
| 2026-05-05 15:58 | 23.32136 | 113.29475 | 1030 ft | 147 kts | 15° |
| 2026-05-05 15:58 | 23.33128 | 113.29743 | 834 ft | 146 kts | 15° |
| 2026-05-05 15:59 | 23.34108 | 113.30006 | 662 ft | 145 kts | 15° |
| 2026-05-05 15:59 | 23.35083 | 113.30269 | 469 ft | 144 kts | 14° |
| 2026-05-05 15:59 | 23.36055 | 113.30531 | 281 ft | 144 kts | 14° |